createdAt,value
2022-11-21T00:00:24.609Z,96871.94
2022-11-21T00:04:28.622Z,96880.03
2022-11-21T00:08:33.845Z,96887.03
2022-11-21T00:12:37.547Z,96873.13
2022-11-21T00:16:40.668Z,96868.91
2022-11-21T00:20:46.099Z,96863.91
2022-11-21T00:24:54.153Z,96865.50
2022-11-21T00:28:58.070Z,96870.69
2022-11-21T00:33:01.244Z,96863.13
2022-11-21T00:37:04.624Z,96860.09
2022-11-21T00:41:09.616Z,96850.38
2022-11-21T00:45:13.055Z,96863.84
2022-11-21T00:49:16.559Z,96881.03
2022-11-21T00:53:19.609Z,96886.59
2022-11-21T00:57:24.328Z,96873.00
2022-11-21T01:01:27.849Z,96844.47
2022-11-21T01:05:33.168Z,96857.47
2022-11-21T01:09:37.356Z,96845.13
2022-11-21T01:13:42.889Z,96846.75
2022-11-21T01:17:45.885Z,96853.22
2022-11-21T01:21:49.392Z,96847.19
2022-11-21T01:25:52.373Z,96834.72
2022-11-21T01:29:57.101Z,96831.47
2022-11-21T01:34:02.079Z,96842.97
2022-11-21T01:38:05.603Z,96843.28
2022-11-21T01:42:09.076Z,96849.44
2022-11-21T01:46:15.874Z,96847.63
2022-11-21T01:50:19.587Z,96851.88
2022-11-21T01:54:28.776Z,96856.69
2022-11-21T01:58:35.503Z,96862.53
2022-11-21T02:02:45.596Z,96861.41
2022-11-21T02:06:49.128Z,96864.66
2022-11-21T02:11:01.781Z,96861.94
2022-11-21T02:15:05.824Z,96875.50
2022-11-21T02:19:17.336Z,96877.31
2022-11-21T02:23:27.277Z,96875.50
2022-11-21T02:27:32.026Z,96866.59
2022-11-21T02:31:35.662Z,96861.25
2022-11-21T02:35:39.486Z,96869.34
2022-11-21T02:39:43.168Z,96880.00
2022-11-21T02:43:54.209Z,96882.13
2022-11-21T02:48:03.623Z,96871.09
2022-11-21T02:52:07.839Z,96853.44
2022-11-21T02:56:11.438Z,96845.31
2022-11-21T03:00:17.638Z,96835.78
2022-11-21T03:04:20.850Z,96835.94
2022-11-21T03:08:24.392Z,96826.69
2022-11-21T03:12:27.845Z,96836.09
2022-11-21T03:16:32.266Z,96829.75
2022-11-21T03:20:36.891Z,96823.94
2022-11-21T03:24:39.966Z,96812.94
2022-11-21T03:28:43.513Z,96825.22
2022-11-21T03:32:48.384Z,96808.22
2022-11-21T03:36:51.938Z,96806.78
2022-11-21T03:40:55.475Z,96809.50
2022-11-21T03:44:58.764Z,96798.66
2022-11-21T03:49:04.607Z,96795.09
2022-11-21T03:53:07.796Z,96804.34
2022-11-21T03:57:11.210Z,96799.63
2022-11-21T04:01:15.687Z,96800.16
2022-11-21T04:05:20.717Z,96797.72
2022-11-21T04:09:23.754Z,96800.03
2022-11-21T04:13:27.267Z,96797.81
2022-11-21T04:17:32.440Z,96794.56
2022-11-21T04:21:36.901Z,96789.72
2022-11-21T04:25:40.315Z,96781.47
2022-11-21T04:29:43.716Z,96787.13
2022-11-21T04:33:46.707Z,96777.75
2022-11-21T04:37:51.971Z,96767.38
2022-11-21T04:41:55.360Z,96766.75
2022-11-21T04:45:58.978Z,96758.34
2022-11-21T04:50:02.588Z,96755.25
2022-11-21T04:54:07.441Z,96769.03
2022-11-21T04:58:10.649Z,96759.31
2022-11-21T05:02:13.750Z,96752.81
2022-11-21T05:06:19.770Z,96740.34
2022-11-21T05:10:24.763Z,96740.03
2022-11-21T05:14:28.670Z,96731.44
2022-11-21T05:18:32.173Z,96725.78
2022-11-21T05:22:35.756Z,96723.69
2022-11-21T05:26:40.836Z,96712.69
2022-11-21T05:30:43.920Z,96702.16
2022-11-21T05:34:47.431Z,96686.13
2022-11-21T05:38:50.980Z,96682.09
2022-11-21T05:43:12.895Z,96691.28
2022-11-21T05:47:16.006Z,96695.19
2022-11-21T05:51:20.498Z,96700.69
2022-11-21T05:55:23.482Z,96696.16
2022-11-21T05:59:28.298Z,96696.31
2022-11-21T06:03:34.377Z,96708.13
2022-11-21T06:07:37.569Z,96710.56
2022-11-21T06:11:41.142Z,96701.97
2022-11-21T06:15:45.986Z,96682.41
2022-11-21T06:19:49.135Z,96701.84
2022-11-21T06:23:54.104Z,96703.13
2022-11-21T06:27:57.180Z,96703.47
2022-11-21T06:32:02.132Z,96709.59
2022-11-21T06:36:07.068Z,96710.91
2022-11-21T06:40:13.182Z,96703.09
2022-11-21T06:44:16.678Z,96699.03
2022-11-21T06:48:21.523Z,96703.72
2022-11-21T06:52:24.624Z,96695.47
2022-11-21T06:56:30.077Z,96700.00
2022-11-21T07:00:33.690Z,96704.53
2022-11-21T07:04:38.117Z,96711.47
2022-11-21T07:08:42.415Z,96714.69
2022-11-21T07:13:03.323Z,96706.44
2022-11-21T07:17:06.374Z,96714.19
2022-11-21T07:21:11.930Z,96708.03
2022-11-21T07:25:15.535Z,96712.69
2022-11-21T07:29:18.623Z,96708.81
2022-11-21T07:33:22.407Z,96722.91
2022-11-21T07:37:28.315Z,96722.56
2022-11-21T07:41:31.437Z,96718.66
2022-11-21T07:45:35.249Z,96726.91
2022-11-21T07:49:38.934Z,96733.69
2022-11-21T07:53:43.681Z,96733.00
2022-11-21T07:57:47.540Z,96733.78
2022-11-21T08:01:53.279Z,96729.19
2022-11-21T08:05:56.355Z,96737.25
2022-11-21T08:10:01.115Z,96728.13
2022-11-21T08:14:04.505Z,96735.69
2022-11-21T08:18:12.457Z,96722.19
2022-11-21T08:22:15.573Z,96727.16
2022-11-21T08:26:20.127Z,96718.66
2022-11-21T08:30:23.507Z,96727.84
2022-11-21T08:34:27.033Z,96729.13
2022-11-21T08:38:30.189Z,96740.94
2022-11-21T08:42:35.036Z,96749.25
2022-11-21T08:46:40.214Z,96772.75
2022-11-21T08:50:43.912Z,96779.69
2022-11-21T08:54:46.985Z,96782.22
2022-11-21T08:58:52.059Z,96788.63
2022-11-21T09:02:55.576Z,96787.88
2022-11-21T09:06:58.625Z,96780.63
2022-11-21T09:11:06.167Z,96778.72
2022-11-21T09:15:30.485Z,96790.38
2022-11-21T09:19:33.617Z,96793.31
2022-11-21T09:23:36.767Z,96793.00
2022-11-21T09:27:40.287Z,96800.13
2022-11-21T09:31:46.138Z,96799.97
2022-11-21T09:35:49.854Z,96810.19
2022-11-21T09:39:52.823Z,96797.22
2022-11-21T09:44:08.864Z,96793.63
2022-11-21T09:48:16.772Z,96805.47
2022-11-21T09:52:25.906Z,96806.25
2022-11-21T09:56:32.808Z,96809.81
2022-11-21T10:00:36.539Z,96805.06
2022-11-21T10:04:41.036Z,96799.00
2022-11-21T10:08:55.254Z,96790.19
2022-11-21T10:13:21.341Z,96787.56
2022-11-21T10:17:34.425Z,96791.13
2022-11-21T10:22:08.240Z,96790.72
2022-11-21T10:26:18.260Z,96790.59
2022-11-21T10:30:23.663Z,96787.31
2022-11-21T10:34:31.580Z,96776.59
2022-11-21T10:38:41.012Z,96772.13
2022-11-21T10:42:52.897Z,96772.88
2022-11-21T10:46:57.257Z,96762.72
2022-11-21T10:51:19.483Z,96773.00
2022-11-21T10:55:24.129Z,96787.56
2022-11-21T10:59:31.082Z,96781.19
2022-11-21T11:03:35.021Z,96780.88
2022-11-21T11:07:38.124Z,96790.75
2022-11-21T11:11:43.191Z,96772.25
2022-11-21T11:16:00.725Z,96770.28
2022-11-21T11:20:08.086Z,96763.75
2022-11-21T11:24:24.471Z,96764.34
2022-11-21T11:28:37.265Z,96754.97
2022-11-21T11:32:42.791Z,96750.75
2022-11-21T11:36:57.177Z,96748.63
2022-11-21T11:41:04.955Z,96741.94
2022-11-21T11:45:35.078Z,96729.88
2022-11-21T11:49:57.330Z,96717.84
2022-11-21T11:54:08.046Z,96716.16
2022-11-21T11:58:22.259Z,96693.53
2022-11-21T12:02:34.968Z,96711.97
2022-11-21T12:07:54.043Z,96710.97
2022-11-21T12:11:38.024Z,96709.53
2022-11-21T12:15:51.421Z,96700.94
2022-11-21T12:19:57.741Z,96701.63
2022-11-21T12:24:05.154Z,96699.22
2022-11-21T12:28:20.359Z,96698.97
2022-11-21T12:32:37.913Z,96698.03
2022-11-21T12:36:48.036Z,96695.19
2022-11-21T12:41:01.331Z,96695.78
2022-11-21T12:45:27.808Z,96689.78
2022-11-21T12:49:59.316Z,96701.09
2022-11-21T12:54:32.422Z,96703.88
2022-11-21T12:58:39.345Z,96691.94
2022-11-21T13:03:03.644Z,96685.31
2022-11-21T13:07:07.920Z,96678.81
2022-11-21T13:11:39.962Z,96673.81
2022-11-21T13:15:53.942Z,96671.19
2022-11-21T13:20:00.347Z,96660.63
2022-11-21T13:24:03.441Z,96651.19
2022-11-21T13:28:34.737Z,96631.44
2022-11-21T13:32:39.674Z,96643.44
2022-11-21T13:36:44.108Z,96642.56
2022-11-21T13:41:01.455Z,96648.09
2022-11-21T13:45:38.127Z,96650.78
2022-11-21T13:49:51.756Z,96649.72
2022-11-21T13:54:30.221Z,96652.44
2022-11-21T13:58:47.738Z,96652.19
2022-11-21T14:03:15.420Z,96639.00
2022-11-21T14:07:25.894Z,96632.22
2022-11-21T14:11:38.011Z,96619.44
2022-11-21T14:15:50.222Z,96625.09
2022-11-21T14:19:56.478Z,96620.72
2022-11-21T14:24:05.502Z,96621.06
2022-11-21T14:28:14.772Z,96617.38
2022-11-21T14:32:18.002Z,96620.94
2022-11-21T14:36:24.291Z,96620.44
2022-11-21T14:40:29.184Z,96613.72
2022-11-21T14:44:32.717Z,96607.38
2022-11-21T14:48:35.813Z,96610.19
2022-11-21T14:52:39.130Z,96608.50
2022-11-21T14:56:43.729Z,96602.94
2022-11-21T15:01:06.337Z,96601.31
2022-11-21T15:05:29.024Z,96591.25
2022-11-21T15:10:26.903Z,96590.34
2022-11-21T15:14:16.988Z,96592.63
2022-11-21T15:22:49.569Z,96587.91
2022-11-21T15:26:53.086Z,96582.69
2022-11-21T15:31:20.158Z,96576.44
2022-11-21T15:35:32.204Z,96573.56
2022-11-21T15:39:36.604Z,96576.22
2022-11-21T15:43:44.876Z,96574.13
2022-11-21T15:47:50.022Z,96567.69
2022-11-21T15:56:22.677Z,96560.56
2022-11-21T15:57:13.408Z,96597.38
2022-11-21T15:57:15.123Z,96563.13
2022-11-21T16:00:26.788Z,96563.13
2022-11-21T16:04:31.185Z,96560.38
2022-11-21T16:08:37.677Z,96551.44
2022-11-21T16:12:41.044Z,96546.91
2022-11-21T16:16:47.530Z,96539.78
2022-11-21T16:20:52.491Z,96522.47
2022-11-21T16:24:55.543Z,96522.25
2022-11-21T16:29:00.118Z,96519.44
2022-11-21T16:33:04.147Z,96523.44
2022-11-21T16:37:08.981Z,96520.81
2022-11-21T16:41:12.402Z,96532.41
2022-11-21T16:45:16.204Z,96511.59
2022-11-21T16:49:20.678Z,96504.75
2022-11-21T16:53:25.272Z,96499.69
2022-11-21T16:57:28.777Z,96500.63
2022-11-21T17:01:32.660Z,96492.19
2022-11-21T17:05:36.267Z,96484.53
2022-11-21T17:09:40.842Z,96468.19
2022-11-21T17:13:45.074Z,96465.69
2022-11-21T17:17:48.576Z,96470.00
2022-11-21T17:21:52.090Z,96475.91
2022-11-21T17:25:57.478Z,96476.50
2022-11-21T17:30:00.523Z,96475.47
2022-11-21T17:34:04.177Z,96476.06
2022-11-21T17:38:07.404Z,96464.59
2022-11-21T17:42:12.274Z,96463.94
2022-11-21T17:46:17.979Z,96453.09
2022-11-21T17:50:21.891Z,96441.34
2022-11-21T17:54:25.173Z,96446.78
2022-11-21T17:58:31.587Z,96435.03
2022-11-21T18:02:35.220Z,96440.63
2022-11-21T18:06:40.475Z,96425.59
2022-11-21T18:10:44.318Z,96427.34
2022-11-21T18:14:48.985Z,96427.50
2022-11-21T18:18:53.003Z,96414.81
2022-11-21T18:22:56.022Z,96411.25
2022-11-21T18:26:59.524Z,96401.75
2022-11-21T18:31:09.637Z,96399.00
2022-11-21T18:35:12.751Z,96383.56
2022-11-21T18:39:16.032Z,96370.03
2022-11-21T18:43:19.723Z,96361.34
2022-11-21T18:47:25.489Z,96348.31
2022-11-21T18:51:30.324Z,96336.91
2022-11-21T18:55:33.903Z,96321.13
2022-11-21T18:59:37.394Z,96307.31
2022-11-21T19:03:42.434Z,96312.50
2022-11-21T19:07:45.541Z,96305.53
2022-11-21T19:11:52.384Z,96313.63
2022-11-21T19:15:55.464Z,96307.00
2022-11-21T19:20:00.290Z,96303.25
2022-11-21T19:24:03.466Z,96306.66
2022-11-21T19:28:07.460Z,96305.34
2022-11-21T19:32:11.121Z,96301.13
2022-11-21T19:36:17.150Z,96300.34
2022-11-21T19:40:21.089Z,96286.00
2022-11-21T19:44:24.910Z,96291.47
2022-11-21T19:48:29.156Z,96290.94
2022-11-21T19:52:34.857Z,96292.34
2022-11-21T19:56:38.426Z,96280.22
2022-11-21T20:00:42.266Z,96275.53
2022-11-21T20:04:46.762Z,96275.19
2022-11-21T20:08:54.410Z,96266.00
2022-11-21T20:12:58.540Z,96264.81
2022-11-21T20:17:01.880Z,96264.16
2022-11-21T20:21:12.149Z,96245.78
2022-11-21T20:25:20.291Z,96244.69
2022-11-21T20:29:26.122Z,96230.34
2022-11-21T20:33:29.742Z,96226.16
2022-11-21T20:37:34.244Z,96212.31
2022-11-21T20:41:39.108Z,96202.31
2022-11-21T20:50:08.282Z,96192.69
2022-11-21T20:54:12.144Z,96182.41
2022-11-21T20:58:19.738Z,96179.81
2022-11-21T21:02:23.620Z,96175.66
2022-11-21T21:06:28.525Z,96168.84
2022-11-21T21:10:51.439Z,96163.72
2022-11-21T21:14:57.787Z,96162.78
2022-11-21T21:19:02.126Z,96159.22
2022-11-21T21:23:05.800Z,96144.75
2022-11-21T21:27:09.375Z,96139.63
2022-11-21T21:31:16.002Z,96127.03
2022-11-21T21:35:20.282Z,96134.75
2022-11-21T21:39:23.393Z,96119.94
2022-11-21T21:43:26.775Z,96127.34
2022-11-21T21:47:31.213Z,96120.75
2022-11-21T21:51:36.592Z,96103.50
2022-11-21T21:55:39.731Z,96102.38
2022-11-21T21:59:43.173Z,96089.31
2022-11-21T22:03:48.394Z,96088.19
2022-11-21T22:07:51.757Z,96090.91
2022-11-21T22:11:55.238Z,96077.09
2022-11-21T22:15:59.320Z,96068.72
2022-11-21T22:20:03.894Z,96066.94
2022-11-21T22:24:29.213Z,96048.09
2022-11-21T22:28:32.377Z,96061.31
2022-11-21T22:32:36.079Z,96050.38
2022-11-21T22:36:41.632Z,96047.31
2022-11-21T22:40:45.509Z,96032.97
2022-11-21T22:44:48.483Z,96033.59
2022-11-21T22:48:53.286Z,96031.66
2022-11-21T22:52:58.130Z,96023.31
2022-11-21T22:57:01.168Z,96017.66
2022-11-21T23:01:06.746Z,96021.69
2022-11-21T23:05:10.222Z,96003.66
2022-11-21T23:09:15.393Z,95999.19
2022-11-21T23:13:18.360Z,95974.25
2022-11-21T23:17:22.149Z,95968.97
2022-11-21T23:21:25.352Z,95958.03
2022-11-21T23:25:30.204Z,95952.06
2022-11-21T23:29:33.189Z,95938.44
2022-11-21T23:33:37.064Z,95930.88
2022-11-21T23:37:40.115Z,95932.94
2022-11-21T23:41:44.997Z,95931.19
2022-11-21T23:45:51.836Z,95928.31
2022-11-21T23:49:55.546Z,95933.31
2022-11-21T23:53:58.872Z,95943.59
2022-11-21T23:58:03.398Z,95946.00
